Terminal Aerodrome Forecast
Issued by NWS Wilmington, OH

Current Version | Previous Version | Graphics & Text | Print | Product List | Glossary On
Versions: 1 2 3 4 5 6 7 8 9 10 11 12 13 14 15 16 17 18 19 20 21 22 23
916
FTUS41 KILN 252334
TAFCMH
TAF
KCMH 252334Z 2600/2624 22011KT P6SM SCT070
     FM261000 23012KT P6SM VCSH BKN030
     FM261400 27011KT P6SM BKN035 BKN120
     FM261800 30010KT P6SM VCSH BKN040 BKN120=

USA.gov is the U.S. government's official web portal to all federal, state and local government web resources and services.